Time;durP1;ratioP1;P1;durP2;ratioP2;P2;SDS_P1;SDS_P2;PMS_P1;PMS_P2;Temp;Humidity;BMP_temperature;BMP_pressure;BME280_temperature;BME280_humidity;BME280_pressure;Samples;Min_cycle;Max_cycle;Signal;HPM_P1;HPM_P2
2023/01/14 00:01:46;;;;;;;8.98;1.45;;;6.90;99.90;;;;;;5050567;28;20124;-72
2023/01/14 00:04:12;;;;;;;11.00;1.60;;;6.80;99.90;;;;;;5050806;28;20479;-73
2023/01/14 00:06:38;;;;;;;11.43;1.38;;;7.00;99.90;;;;;;5101936;28;20049;-72
2023/01/14 00:09:07;;;;;;;7.13;1.35;;;6.70;99.90;;;;;;5050561;28;20469;-72
2023/01/14 00:11:51;;;;;;;8.43;1.20;;;6.80;99.90;;;;;;5050249;28;20041;-73
2023/01/14 00:14:18;;;;;;;;;;;6.70;99.90;;;;;;5051156;28;20041;-72
2023/01/14 00:16:44;;;;;;;9.40;1.30;;;6.60;99.90;;;;;;5050992;28;20089;-71
2023/01/14 00:19:11;;;;;;;7.78;1.25;;;6.60;99.90;;;;;;5050485;28;20041;-72
2023/01/14 00:21:37;;;;;;;8.23;1.30;;;6.70;99.90;;;;;;5049817;28;20123;-72
2023/01/14 00:24:04;;;;;;;9.45;1.50;;;6.80;99.90;;;;;;5119585;27;20049;-72
2023/01/14 00:26:30;;;;;;;8.88;1.23;;;6.60;99.90;;;;;;5050420;27;20040;-72
2023/01/14 00:28:56;;;;;;;9.90;1.30;;;6.70;99.90;;;;;;5050207;28;20080;-73
2023/01/14 00:31:26;;;;;;;14.05;1.35;;;6.80;99.90;;;;;;5051007;27;20103;-73
2023/01/14 00:33:52;;;;;;;12.85;2.28;;;6.70;99.90;;;;;;5119431;28;20044;-72
2023/01/14 00:36:20;;;;;;;6.57;1.42;;;6.80;99.90;;;;;;5050326;28;20045;-72
2023/01/14 00:38:46;;;;;;;9.27;1.00;;;6.70;99.90;;;;;;5119211;28;20090;-72
2023/01/14 00:41:14;;;;;;;9.20;1.48;;;6.80;99.90;;;;;;5050329;28;20093;-71
2023/01/14 00:43:43;;;;;;;10.10;1.55;;;6.80;99.90;;;;;;5050457;27;20044;-72
2023/01/14 00:46:13;;;;;;;11.00;1.85;;;6.90;99.90;;;;;;5050506;28;20040;-72
2023/01/14 00:48:40;;;;;;;13.23;1.40;;;6.90;99.90;;;;;;5050316;28;20053;-73
2023/01/14 00:51:06;;;;;;;7.47;1.10;;;6.80;99.90;;;;;;5118397;28;20048;-71
2023/01/14 00:53:33;;;;;;;10.88;1.63;;;7.10;99.90;;;;;;5050272;28;20370;-72
2023/01/14 00:55:59;;;;;;;7.13;1.15;;;7.10;99.90;;;;;;5050007;27;20516;-73
2023/01/14 00:58:24;;;;;;;12.65;1.48;;;6.90;99.90;;;;;;5050192;28;20037;-73
2023/01/14 01:00:52;;;;;;;9.38;1.20;;;7.00;99.90;;;;;;5119078;28;20423;-73
2023/01/14 01:03:18;;;;;;;9.60;1.50;;;7.00;99.90;;;;;;5050177;28;20048;-73
2023/01/14 01:05:44;;;;;;;10.02;1.65;;;6.90;99.90;;;;;;5050099;28;20088;-73
2023/01/14 01:08:13;;;;;;;12.32;1.42;;;6.80;99.90;;;;;;5050024;28;20041;-72
2023/01/14 01:10:40;;;;;;;10.60;1.65;;;7.10;99.90;;;;;;5050443;28;20051;-72
2023/01/14 01:13:06;;;;;;;6.90;1.23;;;6.90;99.90;;;;;;5049977;28;20044;-71
2023/01/14 01:15:33;;;;;;;7.65;1.45;;;6.90;99.90;;;;;;5119065;28;20037;-72
2023/01/14 01:17:59;;;;;;;9.00;1.17;;;7.00;99.90;;;;;;5120880;27;20149;-73
2023/01/14 01:20:25;;;;;;;8.45;1.30;;;7.00;99.90;;;;;;5121859;27;20041;-72
2023/01/14 01:22:51;;;;;;;10.48;1.45;;;6.80;99.90;;;;;;5123041;27;20056;-72
2023/01/14 01:25:16;;;;;;;9.10;1.52;;;6.90;99.90;;;;;;5053468;27;20045;-73
2023/01/14 01:27:42;;;;;;;7.68;1.40;;;7.10;99.90;;;;;;5053162;28;20501;-71
2023/01/14 01:30:09;;;;;;;7.88;1.13;;;6.90;99.90;;;;;;5122440;27;20190;-71
2023/01/14 01:32:34;;;;;;;10.55;1.15;;;6.90;99.90;;;;;;5052977;27;20478;-72
2023/01/14 01:35:00;;;;;;;6.82;1.08;;;7.00;99.90;;;;;;5105572;28;20041;-73
2023/01/14 01:37:27;;;;;;;5.60;1.20;;;7.10;99.90;;;;;;5053095;27;20108;-73
2023/01/14 01:39:53;;;;;;;9.48;1.17;;;7.20;99.90;;;;;;5122483;27;20044;-72
2023/01/14 01:42:23;;;;;;;8.45;1.45;;;7.00;99.90;;;;;;5053457;28;20041;-73
2023/01/14 01:44:48;;;;;;;10.32;1.33;;;7.00;99.90;;;;;;5053079;28;20052;-73
2023/01/14 01:47:16;;;;;;;8.35;0.98;;;7.10;99.90;;;;;;5122516;27;20377;-72
2023/01/14 01:49:42;;;;;;;6.95;0.98;;;7.00;99.90;;;;;;5052969;28;20449;-72
2023/01/14 01:52:19;;;;;;;8.73;1.52;;;7.10;99.90;;;;;;5052454;28;20085;-72
2023/01/14 01:54:50;;;;;;;9.48;1.17;;;6.90;99.90;;;;;;5053122;27;20087;-73
2023/01/14 01:57:16;;;;;;;8.13;1.27;;;6.90;99.90;;;;;;5121980;27;20041;-72
2023/01/14 01:59:47;;;;;;;9.05;1.17;;;6.90;99.90;;;;;;5121912;27;20041;-73
2023/01/14 02:02:13;;;;;;;9.30;1.10;;;6.90;99.90;;;;;;5122482;27;20045;-72
2023/01/14 02:04:39;;;;;;;6.65;0.98;;;6.90;99.90;;;;;;5052817;28;20127;-71
2023/01/14 02:07:20;;;;;;;6.30;0.90;;;6.90;99.90;;;;;;5052935;27;20489;-73
2023/01/14 02:09:47;;;;;;;9.02;1.67;;;6.80;99.90;;;;;;5052701;28;20510;-73
2023/01/14 02:12:31;;;;;;;10.73;1.38;;;6.90;99.90;;;;;;5122040;27;20128;-73
2023/01/14 02:15:18;;;;;;;12.88;1.33;;;6.70;99.90;;;;;;5121885;27;20128;-72
2023/01/14 02:18:02;;;;;;;6.20;1.65;;;6.70;99.90;;;;;;5052989;27;20049;-72
2023/01/14 02:20:55;;;;;;;9.25;1.35;;;6.80;99.90;;;;;;5052250;27;20549;-73
2023/01/14 02:23:32;;;;;;;11.82;2.55;;;6.70;99.90;;;;;;5053119;28;20040;-73
2023/01/14 02:26:08;;;;;;;9.90;1.92;;;6.60;99.90;;;;;;5052646;28;20045;-72
2023/01/14 02:28:52;;;;;;;7.13;0.93;;;6.70;99.90;;;;;;5121251;27;20045;-71
2023/01/14 02:31:47;;;;;;;7.05;1.10;;;6.70;99.90;;;;;;5052556;28;20464;-72
2023/01/14 02:34:48;;;;;;;8.35;1.35;;;6.90;99.90;;;;;;5052871;28;20056;-72
2023/01/14 02:37:23;;;;;;;10.95;1.40;;;6.70;99.90;;;;;;5052686;28;20047;-72
2023/01/14 02:39:58;;;;;;;10.93;1.20;;;6.80;99.90;;;;;;5121043;27;20117;-73
2023/01/14 02:45:44;;;;;;;6.00;0.88;;;6.80;99.90;;;;;;5052281;27;20053;-72
2023/01/14 02:48:11;;;;;;;7.38;0.90;;;6.70;99.90;;;;;;5076549;27;20052;-74
2023/01/14 02:50:37;;;;;;;7.65;1.13;;;6.80;99.90;;;;;;5051510;28;20128;-74
2023/01/14 02:53:16;;;;;;;9.73;1.30;;;6.80;99.90;;;;;;5051990;28;20049;-73
2023/01/14 02:55:42;;;;;;;10.27;1.20;;;6.70;99.90;;;;;;5052001;28;20140;-73
2023/01/14 02:58:28;;;;;;;13.05;1.27;;;6.70;99.90;;;;;;5121057;27;20087;-73
2023/01/14 03:01:23;;;;;;;9.07;1.20;;;6.70;99.90;;;;;;5051972;28;20053;-73
2023/01/14 03:04:29;;;;;;;7.60;1.10;;;6.70;99.90;;;;;;5052753;27;20087;-74
2023/01/14 03:07:25;;;;;;;5.70;0.80;;;6.70;99.90;;;;;;5051724;28;20128;-73
2023/01/14 03:10:21;;;;;;;11.13;1.30;;;6.60;99.90;;;;;;5051825;27;20041;-73
2023/01/14 03:13:15;;;;;;;6.97;1.23;;;6.80;99.90;;;;;;5051983;27;20051;-73
2023/01/14 03:16:11;;;;;;;8.02;1.50;;;6.60;99.90;;;;;;5121328;27;20419;-73
2023/01/14 03:19:19;;;;;;;7.85;1.63;;;6.60;99.90;;;;;;5120793;27;20069;-73
2023/01/14 03:21:49;;;;;;;10.32;1.40;;;6.70;99.90;;;;;;5060793;28;20145;-73
2023/01/14 03:24:25;;;;;;;7.18;1.10;;;6.80;99.90;;;;;;5051955;28;20080;-73
2023/01/14 03:26:52;;;;;;;9.43;1.02;;;6.60;99.90;;;;;;5121073;27;20426;-73
2023/01/14 03:29:26;;;;;;;6.32;1.55;;;6.60;99.90;;;;;;5051363;28;20041;-73
2023/01/14 03:31:58;;;;;;;12.00;1.48;;;6.50;99.90;;;;;;5051102;27;20489;-73
2023/01/14 03:34:29;;;;;;;8.88;1.08;;;6.50;99.90;;;;;;5051721;28;20076;-73
2023/01/14 03:36:57;;;;;;;6.93;1.10;;;6.50;99.90;;;;;;5051349;28;20533;-73
2023/01/14 03:39:25;;;;;;;8.93;1.15;;;6.80;99.90;;;;;;5102522;28;20423;-73
2023/01/14 03:45:06;;;;;;;9.68;1.48;;;6.50;99.90;;;;;;5051079;27;20496;-73
2023/01/14 03:47:35;;;;;;;13.07;1.27;;;6.40;99.90;;;;;;5051533;27;20045;-73
2023/01/14 03:50:05;;;;;;;10.32;1.20;;;6.40;99.90;;;;;;5120141;27;20049;-74
2023/01/14 03:52:50;;;;;;;7.68;1.38;;;6.50;99.90;;;;;;5051893;28;20164;-76
2023/01/14 03:55:30;;;;;;;8.82;1.50;;;6.60;99.90;;;;;;5051274;27;20045;-76
2023/01/14 03:58:12;;;;;;;6.57;1.10;;;6.30;99.90;;;;;;5051648;28;20470;-75
2023/01/14 04:00:50;;;;;;;9.32;1.65;;;6.40;99.90;;;;;;5050960;28;20220;-76
2023/01/14 04:03:16;;;;;;;8.73;2.08;;;6.30;99.90;;;;;;5051028;28;20115;-76
2023/01/14 04:05:42;;;;;;;10.60;1.55;;;6.30;99.90;;;;;;5050876;28;20041;-76
2023/01/14 04:08:09;;;;;;;7.80;1.10;;;6.40;99.90;;;;;;5050837;28;20056;-75
2023/01/14 04:10:35;;;;;;;11.45;1.65;;;6.30;99.90;;;;;;5050846;28;20040;-75
2023/01/14 04:15:44;;;;;;;9.32;1.48;;;6.50;99.90;;;;;;5120045;27;20052;-76
2023/01/14 04:18:10;;;;;;;8.60;1.65;;;6.30;99.90;;;;;;5050458;28;20041;-75
2023/01/14 04:20:36;;;;;;;12.48;1.50;;;6.30;99.90;;;;;;5051284;27;20044;-76
2023/01/14 04:23:02;;;;;;;7.60;1.33;;;6.50;99.90;;;;;;5119589;27;20351;-76
2023/01/14 04:25:27;;;;;;;10.52;1.73;;;6.20;99.90;;;;;;5119217;27;20082;-76
2023/01/14 04:27:53;;;;;;;14.98;1.63;;;6.20;99.90;;;;;;5119495;27;20052;-76
2023/01/14 04:30:19;;;;;;;9.63;1.30;;;6.20;99.90;;;;;;5051008;28;20040;-75
2023/01/14 04:32:45;;;;;;;11.68;1.38;;;6.20;99.90;;;;;;5119861;27;20112;-76
2023/01/14 04:35:11;;;;;;;9.55;1.25;;;6.50;99.90;;;;;;5119381;28;20117;-76
2023/01/14 04:37:37;;;;;;;7.65;1.73;;;6.40;99.90;;;;;;5051540;28;20080;-75
2023/01/14 04:40:03;;;;;;;10.52;0.90;;;6.40;99.90;;;;;;5050432;28;20033;-75
2023/01/14 04:42:30;;;;;;;12.27;1.75;;;6.20;99.90;;;;;;5050436;28;20041;-75
2023/01/14 04:44:59;;;;;;;9.82;1.30;;;6.20;99.90;;;;;;5119215;28;20041;-75
2023/01/14 04:47:25;;;;;;;9.82;1.58;;;6.10;99.90;;;;;;5119521;28;20033;-75
2023/01/14 04:49:51;;;;;;;12.60;1.40;;;6.50;99.90;;;;;;5119490;28;20053;-75
2023/01/14 04:52:17;;;;;;;12.65;1.55;;;6.40;99.90;;;;;;5053062;28;20044;-76
2023/01/14 04:54:43;;;;;;;8.38;1.08;;;6.30;99.90;;;;;;5053866;28;20041;-76
2023/01/14 04:57:09;;;;;;;10.02;1.27;;;6.10;99.90;;;;;;5053961;28;20041;-75
2023/01/14 04:59:35;;;;;;;7.53;1.10;;;6.20;99.90;;;;;;5053799;28;20037;-75
2023/01/14 05:02:01;;;;;;;7.97;1.10;;;6.30;99.90;;;;;;5053982;28;20049;-76
2023/01/14 05:04:26;;;;;;;7.72;1.17;;;6.10;99.90;;;;;;5122786;27;20044;-76
2023/01/14 05:06:54;;;;;;;9.07;1.65;;;6.10;99.90;;;;;;5122839;27;20085;-76
2023/01/14 05:09:19;;;;;;;6.65;1.00;;;6.10;99.90;;;;;;5122703;27;20033;-74
2023/01/14 05:11:45;;;;;;;5.85;1.38;;;6.10;99.90;;;;;;5053704;28;20041;-76
2023/01/14 05:14:11;;;;;;;9.13;1.45;;;6.00;99.90;;;;;;5122831;27;20045;-76
2023/01/14 05:16:36;;;;;;;10.85;1.25;;;6.00;99.90;;;;;;5122762;27;20117;-76
2023/01/14 05:19:03;;;;;;;9.77;1.30;;;6.10;99.90;;;;;;5123131;27;20136;-75
2023/01/14 05:21:28;;;;;;;7.88;1.65;;;6.30;99.90;;;;;;5053835;28;20049;-76
2023/01/14 05:23:54;;;;;;;6.97;1.30;;;6.00;99.90;;;;;;5122858;27;20530;-76
2023/01/14 05:26:20;;;;;;;9.27;1.02;;;6.10;99.90;;;;;;5053393;28;20226;-76
2023/01/14 05:28:45;;;;;;;7.80;1.20;;;6.10;99.90;;;;;;5053521;28;20060;-76
2023/01/14 05:31:11;;;;;;;9.63;1.30;;;6.00;99.90;;;;;;5052989;28;20063;-75
2023/01/14 05:33:37;;;;;;;5.55;1.15;;;6.10;99.90;;;;;;5053367;28;20081;-76
2023/01/14 05:36:03;;;;;;;9.45;1.20;;;6.00;99.90;;;;;;5053713;28;20041;-75
2023/01/14 05:38:29;;;;;;;8.15;1.08;;;6.00;99.90;;;;;;5053113;28;20070;-75
2023/01/14 05:40:55;;;;;;;9.20;1.35;;;6.00;99.90;;;;;;5122586;27;20482;-75
2023/01/14 05:46:08;;;;;;;7.93;1.20;;;6.20;99.90;;;;;;5053806;27;20099;-75
2023/01/14 05:48:34;;;;;;;9.63;1.38;;;5.90;99.90;;;;;;5053075;27;20175;-75
2023/01/14 05:51:01;;;;;;;6.32;1.17;;;6.00;99.90;;;;;;5053473;28;20040;-75
2023/01/14 05:53:27;;;;;;;12.73;1.27;;;6.00;99.90;;;;;;5053083;28;20120;-75
2023/01/14 05:55:53;;;;;;;10.25;1.55;;;6.10;99.90;;;;;;5052994;28;20464;-75
2023/01/14 05:58:20;;;;;;;9.63;1.40;;;6.30;99.90;;;;;;5053690;28;20037;-75
2023/01/14 06:06:28;;;;;;;10.10;1.60;;;6.00;99.90;;;;;;5053551;27;20088;-75
2023/01/14 06:09:02;;;;;;;10.73;1.75;;;5.90;99.90;;;;;;5122364;27;20090;-75
2023/01/14 06:11:32;;;;;;;10.60;1.58;;;6.10;99.90;;;;;;5052415;28;20505;-76
2023/01/14 06:13:58;;;;;;;10.65;1.30;;;6.00;99.90;;;;;;5052380;27;20528;-75
2023/01/14 06:16:28;;;;;;;10.48;2.35;;;6.00;99.90;;;;;;5052648;28;20076;-76
2023/01/14 06:18:55;;;;;;;11.10;1.48;;;6.10;99.90;;;;;;5053388;28;20041;-75
2023/01/14 06:21:25;;;;;;;13.23;1.90;;;6.10;99.90;;;;;;5052518;28;20037;-75
2023/01/14 06:23:51;;;;;;;8.23;1.50;;;6.10;99.90;;;;;;5052739;28;20143;-75
2023/01/14 06:26:19;;;;;;;12.45;2.03;;;6.20;99.90;;;;;;5053145;28;20076;-75
2023/01/14 06:28:46;;;;;;;12.60;3.00;;;5.90;99.90;;;;;;5104666;28;20052;-75
2023/01/14 06:31:14;;;;;;;12.20;1.85;;;5.90;99.90;;;;;;5052554;28;20436;-74
2023/01/14 06:33:41;;;;;;;14.52;1.95;;;6.10;99.90;;;;;;5052300;28;20037;-75
2023/01/14 06:36:08;;;;;;;13.65;2.30;;;6.20;99.90;;;;;;5053136;28;20082;-75
2023/01/14 06:38:35;;;;;;;14.95;3.05;;;6.00;99.90;;;;;;5052178;28;20049;-75
2023/01/14 06:41:02;;;;;;;11.90;2.60;;;6.00;99.90;;;;;;5121953;27;20044;-75
2023/01/14 06:43:28;;;;;;;14.77;2.80;;;6.10;99.90;;;;;;5052296;27;20037;-77
2023/01/14 06:45:54;;;;;;;10.13;2.97;;;6.40;99.90;;;;;;5052451;28;20036;-76
2023/01/14 06:48:21;;;;;;;14.13;3.20;;;6.00;99.90;;;;;;5052068;28;20052;-75
2023/01/14 06:50:46;;;;;;;12.38;4.07;;;5.90;99.90;;;;;;5121061;27;20051;-75
2023/01/14 06:53:12;;;;;;;15.10;3.38;;;6.20;99.90;;;;;;5121374;27;20128;-75
2023/01/14 06:55:38;;;;;;;13.13;2.58;;;6.00;99.90;;;;;;5052156;28;20093;-75
2023/01/14 06:58:03;;;;;;;12.95;3.70;;;6.50;99.90;;;;;;5052748;27;20095;-75
2023/01/14 07:00:29;;;;;;;10.35;2.75;;;5.90;99.90;;;;;;5121083;27;20124;-75
2023/01/14 07:02:55;;;;;;;14.27;3.55;;;5.80;99.90;;;;;;5121307;27;20048;-75
2023/01/14 07:05:21;;;;;;;17.35;3.58;;;6.00;99.90;;;;;;5052412;28;20049;-75
2023/01/14 07:07:47;;;;;;;15.32;3.10;;;5.80;99.90;;;;;;5052038;28;20464;-75
2023/01/14 07:10:14;;;;;;;17.85;3.05;;;5.90;99.90;;;;;;5051892;28;20041;-75
2023/01/14 07:12:47;;;;;;;13.68;3.33;;;6.10;99.90;;;;;;5051823;28;20041;-75
2023/01/14 07:15:14;;;;;;;19.60;2.95;;;5.80;99.90;;;;;;5052941;27;20049;-75
2023/01/14 07:17:40;;;;;;;15.32;2.45;;;5.80;99.90;;;;;;5122516;27;20175;-75
2023/01/14 07:20:08;;;;;;;11.45;2.03;;;6.00;99.90;;;;;;5122025;27;20133;-75
2023/01/14 07:22:34;;;;;;;13.05;2.58;;;5.80;99.90;;;;;;5051416;28;20478;-74
2023/01/14 07:25:02;;;;;;;12.63;2.47;;;5.90;99.90;;;;;;5120508;27;20060;-75
2023/01/14 07:27:28;;;;;;;18.42;2.92;;;6.10;99.90;;;;;;5051880;28;20071;-75
2023/01/14 07:29:54;;;;;;;17.83;2.90;;;6.10;99.90;;;;;;5051597;28;20044;-75
2023/01/14 07:32:20;;;;;;;12.15;3.13;;;6.00;99.90;;;;;;5052013;28;20053;-76
2023/01/14 07:34:46;;;;;;;16.70;2.80;;;5.90;99.90;;;;;;5120060;27;20037;-75
2023/01/14 07:37:11;;;;;;;19.58;3.20;;;6.10;99.90;;;;;;5051858;28;20041;-75
2023/01/14 07:39:37;;;;;;;11.45;1.95;;;6.00;99.90;;;;;;5120287;27;20033;-77
2023/01/14 07:42:03;;;;;;;21.50;3.35;;;6.20;99.90;;;;;;5051263;28;20045;-76
2023/01/14 07:44:28;;;;;;;15.80;2.45;;;6.10;99.90;;;;;;5051392;28;20431;-75
2023/01/14 07:46:55;;;;;;;17.70;2.95;;;6.00;99.90;;;;;;5051492;28;20132;-75
2023/01/14 07:49:24;;;;;;;15.50;2.53;;;6.10;99.90;;;;;;5051457;28;20052;-75
2023/01/14 07:51:51;;;;;;;13.27;2.13;;;6.00;99.90;;;;;;5120592;27;20040;-75
2023/01/14 07:54:18;;;;;;;15.57;2.47;;;6.20;99.90;;;;;;5051085;28;20121;-76
2023/01/14 07:56:44;;;;;;;16.13;3.05;;;6.00;99.90;;;;;;5120132;27;20048;-75
2023/01/14 07:59:10;;;;;;;19.17;2.65;;;6.30;99.90;;;;;;5051545;28;20065;-75
2023/01/14 08:01:36;;;;;;;13.27;2.78;;;6.10;99.90;;;;;;5119891;27;20041;-75
2023/01/14 08:04:02;;;;;;;21.02;2.78;;;6.20;99.90;;;;;;5050896;28;20075;-74
2023/01/14 08:06:28;;;;;;;13.10;3.03;;;6.10;99.90;;;;;;5051521;28;20434;-76
2023/01/14 08:08:54;;;;;;;16.83;3.65;;;6.20;99.90;;;;;;5050911;28;20045;-76
2023/01/14 08:11:20;;;;;;;14.77;2.45;;;6.30;99.90;;;;;;5051416;28;20079;-75
2023/01/14 08:13:48;;;;;;;16.80;2.85;;;6.10;99.90;;;;;;5119738;27;20080;-76
2023/01/14 08:16:15;;;;;;;15.00;2.58;;;6.20;99.90;;;;;;5050775;28;20045;-75
2023/01/14 08:18:40;;;;;;;15.90;2.85;;;6.10;99.90;;;;;;5050716;28;20041;-76
2023/01/14 08:21:09;;;;;;;16.00;2.95;;;6.40;99.90;;;;;;5051112;27;20045;-74
2023/01/14 08:23:35;;;;;;;16.52;3.20;;;6.20;99.90;;;;;;5119814;27;20064;-76
2023/01/14 08:26:02;;;;;;;12.82;2.47;;;6.20;99.90;;;;;;5050688;28;20080;-76
2023/01/14 08:28:28;;;;;;;13.70;2.50;;;6.40;99.90;;;;;;5050654;28;20541;-75
2023/01/14 08:31:04;;;;;;;12.32;2.90;;;6.40;99.90;;;;;;5119109;27;20131;-75
2023/01/14 08:33:30;;;;;;;9.73;3.30;;;6.20;99.90;;;;;;5050264;28;20486;-75
2023/01/14 08:35:55;;;;;;;17.42;2.53;;;6.20;99.90;;;;;;5050634;28;20071;-76
2023/01/14 08:38:21;;;;;;;20.48;3.00;;;6.50;99.90;;;;;;5050824;28;20424;-76
2023/01/14 08:40:48;;;;;;;14.95;2.55;;;6.50;99.90;;;;;;5050877;28;20455;-76
2023/01/14 08:43:14;;;;;;;18.63;2.58;;;6.30;99.90;;;;;;5050379;28;20562;-75
2023/01/14 08:45:41;;;;;;;20.70;3.05;;;6.50;99.90;;;;;;5050617;28;20047;-73
2023/01/14 08:48:07;;;;;;;15.07;2.17;;;6.50;99.90;;;;;;5050586;28;20053;-75
2023/01/14 08:50:33;;;;;;;12.10;2.00;;;6.40;99.90;;;;;;5120703;28;20052;-74
2023/01/14 08:52:59;;;;;;;14.27;2.63;;;6.30;99.90;;;;;;5050960;28;20106;-74
2023/01/14 08:55:25;;;;;;;9.43;2.20;;;6.30;99.90;;;;;;5050460;28;20041;-73
2023/01/14 08:57:51;;;;;;;14.85;2.33;;;6.30;99.90;;;;;;5050464;28;20055;-75
2023/01/14 09:00:17;;;;;;;10.93;2.65;;;6.60;99.90;;;;;;5050281;28;20041;-74
2023/01/14 09:02:43;;;;;;;14.52;2.45;;;6.30;99.90;;;;;;5050452;28;20041;-75
2023/01/14 09:05:09;;;;;;;12.52;2.10;;;6.60;99.90;;;;;;5103150;28;20123;-75
2023/01/14 09:18:34;;;;;;;13.95;2.25;;;6.30;99.90;;;;;;5050308;28;20053;-74
2023/01/14 09:21:00;;;;;;;14.55;3.35;;;6.40;99.90;;;;;;5049756;28;20084;-75
2023/01/14 09:23:26;;;;;;;13.55;2.40;;;6.50;99.90;;;;;;5119351;28;20094;-74
2023/01/14 09:25:51;;;;;;;12.23;2.40;;;6.30;99.90;;;;;;5102555;28;20507;-74
2023/01/14 09:28:17;;;;;;;11.32;1.90;;;6.60;99.90;;;;;;5050112;28;20120;-72
2023/01/14 09:30:43;;;;;;;13.60;2.60;;;6.30;99.90;;;;;;5118638;28;20045;-72
2023/01/14 09:33:10;;;;;;;15.73;2.38;;;6.60;99.90;;;;;;5050600;28;20049;-72
2023/01/14 09:35:36;;;;;;;13.70;2.45;;;6.30;99.90;;;;;;5050173;27;20044;-72
2023/01/14 09:38:02;;;;;;;10.43;2.17;;;6.40;99.90;;;;;;5050799;28;20466;-72
2023/01/14 09:40:27;;;;;;;13.80;2.20;;;6.40;99.90;;;;;;5053261;28;20045;-73
2023/01/14 09:42:53;;;;;;;18.08;2.95;;;6.50;99.90;;;;;;5053236;28;20474;-73
2023/01/14 09:45:22;;;;;;;12.52;2.53;;;6.40;99.90;;;;;;5123591;27;20044;-72
2023/01/14 09:47:48;;;;;;;13.27;2.45;;;6.30;99.90;;;;;;5053226;28;20036;-73
2023/01/14 09:50:16;;;;;;;17.50;2.40;;;6.50;99.90;;;;;;5053210;28;20037;-72
2023/01/14 09:53:04;;;;;;;13.40;1.73;;;6.50;99.90;;;;;;5053128;28;20431;-73
2023/01/14 09:56:11;;;;;;;15.90;2.60;;;6.40;99.90;;;;;;5053678;28;20358;-72
2023/01/14 09:58:57;;;;;;;17.55;2.20;;;6.30;99.90;;;;;;5074286;28;20072;-71
2023/01/14 10:01:44;;;;;;;11.63;1.67;;;6.30;99.90;;;;;;5104002;28;20056;-73
2023/01/14 10:04:25;;;;;;;17.23;2.17;;;6.40;99.90;;;;;;5052879;27;20041;-72
2023/01/14 10:06:54;;;;;;;11.00;2.10;;;6.30;99.90;;;;;;5053010;28;20045;-70
2023/01/14 10:09:43;;;;;;;17.15;2.28;;;6.50;99.90;;;;;;5122167;27;20056;-72
2023/01/14 10:12:17;;;;;;;11.63;2.33;;;6.30;99.90;;;;;;5121735;27;20047;-72
2023/01/14 10:14:58;;;;;;;10.63;1.88;;;6.20;99.90;;;;;;5053100;28;20531;-72
2023/01/14 10:17:30;;;;;;;13.43;2.53;;;6.30;99.90;;;;;;5052686;27;20615;-71
2023/01/14 10:20:03;;;;;;;10.20;2.38;;;6.50;99.90;;;;;;5105473;28;20045;-73
2023/01/14 10:22:38;;;;;;;8.95;2.00;;;6.30;99.90;;;;;;5053466;28;20049;-71
2023/01/14 10:25:15;;;;;;;9.82;2.13;;;6.30;99.90;;;;;;5052734;28;20041;-73
2023/01/14 10:27:42;;;;;;;8.27;1.77;;;6.30;99.90;;;;;;5052601;28;20045;-71
2023/01/14 10:30:18;;;;;;;9.07;1.80;;;6.30;99.90;;;;;;5052554;28;20482;-72
2023/01/14 10:32:45;;;;;;;10.13;2.08;;;6.30;99.90;;;;;;5121616;27;20052;-72
2023/01/14 10:35:14;;;;;;;15.52;2.60;;;6.30;99.90;;;;;;5121513;27;20037;-71
2023/01/14 10:37:40;;;;;;;11.45;2.10;;;6.30;99.90;;;;;;5104369;28;20041;-71
2023/01/14 10:40:20;;;;;;;14.02;3.13;;;6.50;99.90;;;;;;5121511;27;20183;-72
2023/01/14 10:42:45;;;;;;;15.65;3.40;;;6.30;99.90;;;;;;5052963;28;20045;-75
2023/01/14 10:45:12;;;;;;;8.57;3.05;;;6.40;99.90;;;;;;5052783;27;20043;-73
2023/01/14 10:47:39;;;;;;;8.07;3.65;;;6.40;99.90;;;;;;5052350;28;20045;-73
2023/01/14 10:50:26;;;;;;;11.38;3.45;;;6.30;99.90;;;;;;5121222;27;20173;-73
2023/01/14 10:52:53;;;;;;;8.13;2.83;;;6.40;99.90;;;;;;5052766;28;20073;-75
2023/01/14 10:55:26;;;;;;;7.22;3.05;;;6.40;99.90;;;;;;5052209;28;20045;-73
2023/01/14 10:58:13;;;;;;;12.50;3.33;;;6.40;99.90;;;;;;5052265;28;20452;-72
2023/01/14 11:00:40;;;;;;;11.23;3.53;;;6.90;99.90;;;;;;5052898;28;20373;-73
2023/01/14 11:03:17;;;;;;;9.80;3.30;;;6.40;99.90;;;;;;5052105;28;20041;-72
2023/01/14 11:05:43;;;;;;;12.52;3.80;;;6.40;99.90;;;;;;5052667;28;20045;-73
2023/01/14 11:08:40;;;;;;;8.70;3.20;;;6.70;99.90;;;;;;5052306;27;20381;-72
2023/01/14 11:11:07;;;;;;;7.22;3.15;;;6.50;99.90;;;;;;5104110;28;20382;-73
2023/01/14 11:13:48;;;;;;;6.18;2.90;;;6.40;99.90;;;;;;5051848;28;20049;-73
2023/01/14 11:16:25;;;;;;;7.13;2.72;;;6.70;99.90;;;;;;5051987;28;20052;-72
2023/01/14 11:18:55;;;;;;;9.05;3.00;;;6.50;99.90;;;;;;5051744;28;20037;-74
2023/01/14 11:21:24;;;;;;;8.45;2.95;;;6.60;99.90;;;;;;5051714;28;20053;-74
2023/01/14 11:24:17;;;;;;;9.48;3.13;;;6.50;99.90;;;;;;5051702;28;20081;-75
2023/01/14 11:26:43;;;;;;;8.48;3.33;;;6.50;99.90;;;;;;5051186;28;20377;-72
2023/01/14 11:29:29;;;;;;;6.80;2.60;;;6.70;99.90;;;;;;5051387;28;20048;-73
2023/01/14 11:32:07;;;;;;;6.90;2.70;;;6.60;99.90;;;;;;5051717;28;20049;-73
2023/01/14 11:34:40;;;;;;;6.38;2.35;;;6.80;99.90;;;;;;5051550;28;20115;-73
2023/01/14 11:37:17;;;;;;;5.20;2.00;;;6.70;99.90;;;;;;5051996;28;20045;-73
2023/01/14 11:39:53;;;;;;;5.20;1.95;;;6.70;99.90;;;;;;5051992;28;20036;-72
2023/01/14 11:42:34;;;;;;;9.98;2.50;;;6.70;99.90;;;;;;5051441;28;20052;-73
2023/01/14 11:45:12;;;;;;;5.93;1.95;;;6.70;99.90;;;;;;5120069;27;20043;-72
2023/01/14 11:47:51;;;;;;;6.20;1.90;;;6.70;99.90;;;;;;5051276;28;20040;-73
2023/01/14 11:50:23;;;;;;;3.42;1.60;;;6.80;99.90;;;;;;5051546;28;20041;-74
2023/01/14 11:52:57;;;;;;;9.07;2.25;;;6.70;99.90;;;;;;5051233;28;20036;-73
2023/01/14 11:55:23;;;;;;;3.70;1.77;;;6.70;99.90;;;;;;5052097;28;20335;-73
2023/01/14 11:57:49;;;;;;;7.65;2.42;;;6.70;99.90;;;;;;5051119;28;20094;-70
2023/01/14 12:00:15;;;;;;;5.43;2.03;;;6.80;99.90;;;;;;5051564;27;20476;-72
2023/01/14 12:02:46;;;;;;;5.43;2.10;;;6.70;99.90;;;;;;5050478;28;20041;-71
2023/01/14 12:05:15;;;;;;;7.20;2.00;;;6.90;99.90;;;;;;5120823;27;20087;-73
2023/01/14 12:07:59;;;;;;;7.05;2.40;;;6.90;99.90;;;;;;5051273;28;20048;-72
2023/01/14 12:10:32;;;;;;;7.18;3.35;;;6.80;99.90;;;;;;5120878;27;20045;-72
2023/01/14 12:19:08;;;;;;;3.90;1.90;;;6.80;99.90;;;;;;5051544;27;20052;-73
2023/01/14 12:21:42;;;;;;;5.07;1.52;;;6.80;99.90;;;;;;5059183;28;20118;-73
2023/01/14 12:24:22;;;;;;;4.38;1.63;;;6.80;99.90;;;;;;5120205;27;20056;-72
2023/01/14 12:26:50;;;;;;;5.47;1.90;;;6.80;99.90;;;;;;5050685;28;20046;-71
2023/01/14 12:29:25;;;;;;;8.30;2.00;;;6.90;99.90;;;;;;5050732;28;20029;-72
2023/01/14 12:32:09;;;;;;;4.13;1.75;;;6.90;99.90;;;;;;5050479;28;20072;-73
2023/01/14 12:34:51;;;;;;;5.78;1.58;;;6.90;99.90;;;;;;5119512;27;20049;-73
2023/01/14 12:37:32;;;;;;;4.90;1.98;;;6.90;99.90;;;;;;5051240;28;20378;-73
2023/01/14 12:46:05;;;;;;;4.95;1.60;;;7.10;99.90;;;;;;5050683;28;20041;-72
2023/01/14 12:48:32;;;;;;;4.03;1.73;;;6.90;99.90;;;;;;5051329;28;20041;-72
2023/01/14 12:51:02;;;;;;;4.85;1.73;;;7.00;99.90;;;;;;5051083;27;20045;-72
2023/01/14 12:53:34;;;;;;;8.38;1.67;;;7.00;99.90;;;;;;5054379;28;20049;-72
2023/01/14 12:56:03;;;;;;;4.57;1.52;;;7.00;99.90;;;;;;5053924;28;20472;-72
2023/01/14 12:58:32;;;;;;;4.38;1.92;;;7.00;99.90;;;;;;5050441;28;20443;-73
2023/01/14 13:01:02;;;;;;;3.20;1.70;;;7.10;99.90;;;;;;5119281;28;20047;-72
2023/01/14 13:03:45;;;;;;;6.57;2.20;;;7.00;99.90;;;;;;5050054;28;20049;-72
2023/01/14 13:06:18;;;;;;;5.53;2.33;;;7.10;99.90;;;;;;5050598;28;20044;-73
2023/01/14 13:08:50;;;;;;;6.43;1.88;;;7.10;99.90;;;;;;5050379;28;20369;-72
2023/01/14 13:11:19;;;;;;;4.73;1.43;;;7.10;99.90;;;;;;5050629;28;20382;-73
2023/01/14 13:13:51;;;;;;;4.35;1.50;;;7.10;99.90;;;;;;5053145;28;20041;-72
2023/01/14 13:16:29;;;;;;;5.75;1.70;;;7.10;99.90;;;;;;5054306;28;20093;-72
2023/01/14 13:18:59;;;;;;;4.53;1.42;;;7.10;99.90;;;;;;5053616;28;20045;-72
2023/01/14 13:22:02;;;;;;;4.40;1.23;;;7.30;99.90;;;;;;5053421;28;20051;-72
2023/01/14 13:24:35;;;;;;;3.65;1.20;;;7.20;99.90;;;;;;5074302;28;20506;-73
2023/01/14 13:27:55;;;;;;;2.42;1.10;;;7.20;99.90;;;;;;5056175;28;20049;-72
2023/01/14 13:30:20;;;;;;;4.30;0.93;;;7.20;99.90;;;;;;5057920;28;20101;-72
2023/01/14 13:33:06;;;;;;;4.13;0.90;;;7.30;99.90;;;;;;5058418;28;20041;-72
2023/01/14 13:35:36;;;;;;;1.75;0.77;;;7.30;99.90;;;;;;5054231;28;20374;-72
2023/01/14 13:38:17;;;;;;;1.23;0.60;;;7.40;99.90;;;;;;5053427;28;20045;-71
2023/01/14 13:40:50;;;;;;;2.03;0.70;;;7.40;99.90;;;;;;5123150;27;20448;-71
2023/01/14 13:43:24;;;;;;;2.50;1.23;;;7.50;99.90;;;;;;5053350;28;20041;-71
2023/01/14 13:46:00;;;;;;;2.10;0.70;;;7.40;99.90;;;;;;5054051;28;20041;-72
2023/01/14 13:48:41;;;;;;;2.65;0.80;;;7.50;99.90;;;;;;5122649;27;20595;-73
2023/01/14 13:51:17;;;;;;;2.85;0.70;;;7.50;99.90;;;;;;5054159;27;20070;-72
2023/01/14 13:53:55;;;;;;;1.25;0.60;;;7.50;99.90;;;;;;5053103;28;20158;-71